Time;durP1;ratioP1;P1;durP2;ratioP2;P2;SDS_P1;SDS_P2;PMS_P1;PMS_P2;Temp;Humidity;BMP_temperature;BMP_pressure;BME280_temperature;BME280_humidity;BME280_pressure;Samples;Min_cycle;Max_cycle;Signal;HPM_P1;HPM_P2
2023/12/18 00:00:52;;;;;;;15.43;6.90;;;3.90;99.90;;;;;;10075692;28;20029;-72
2023/12/18 00:05:43;;;;;;;12.18;6.82;;;3.90;99.90;;;;;;10075261;28;20094;-72
2023/12/18 00:10:33;;;;;;;17.50;7.15;;;3.90;99.90;;;;;;10057754;28;20064;-71
2023/12/18 00:15:26;;;;;;;10.85;6.07;;;3.90;99.90;;;;;;10075407;28;20036;-71
2023/12/18 00:20:17;;;;;;;14.63;6.60;;;3.90;99.90;;;;;;10076897;28;20224;-72
2023/12/18 00:25:08;;;;;;;14.07;6.80;;;3.80;99.90;;;;;;10073467;28;20459;-72
2023/12/18 00:29:58;;;;;;;13.15;5.28;;;3.90;99.90;;;;;;10071871;28;20152;-71
2023/12/18 00:34:49;;;;;;;11.35;6.20;;;3.90;99.90;;;;;;10079393;28;20112;-72
2023/12/18 00:39:40;;;;;;;11.80;6.05;;;3.90;99.90;;;;;;10061254;28;20466;-72
2023/12/18 00:44:30;;;;;;;13.65;6.28;;;3.90;99.90;;;;;;10081047;28;20045;-70
2023/12/18 00:49:21;;;;;;;12.50;6.00;;;3.90;99.90;;;;;;10080397;28;20030;-72
2023/12/18 00:54:12;;;;;;;12.40;6.18;;;3.90;99.90;;;;;;10084375;28;20025;-72
2023/12/18 00:59:02;;;;;;;16.25;6.55;;;3.80;99.90;;;;;;10084861;28;20082;-72
2023/12/18 01:03:53;;;;;;;16.15;7.07;;;3.70;99.90;;;;;;10077604;28;20450;-71
2023/12/18 01:08:44;;;;;;;12.38;7.05;;;3.70;99.90;;;;;;10069615;28;20040;-71
2023/12/18 01:13:35;;;;;;;11.73;5.80;;;3.60;99.90;;;;;;10083315;28;20418;-72
2023/12/18 01:18:25;;;;;;;10.82;4.63;;;3.50;99.90;;;;;;10086110;28;20074;-71
2023/12/18 01:23:16;;;;;;;11.27;5.20;;;3.50;99.90;;;;;;10084368;28;21091;-71
2023/12/18 01:28:07;;;;;;;10.35;5.60;;;3.50;99.90;;;;;;10082887;28;20120;-71
2023/12/18 01:32:57;;;;;;;9.55;4.95;;;3.50;99.90;;;;;;10067603;28;20220;-70
2023/12/18 01:37:48;;;;;;;11.07;5.75;;;3.40;99.90;;;;;;10084101;28;20029;-72
2023/12/18 01:42:44;;;;;;;9.43;5.30;;;3.40;99.90;;;;;;10078755;28;20029;-71
2023/12/18 01:47:35;;;;;;;8.68;4.75;;;3.40;99.90;;;;;;10080247;28;20033;-72
2023/12/18 01:52:26;;;;;;;11.27;4.72;;;3.40;99.90;;;;;;10089390;28;20036;-71
2023/12/18 01:57:17;;;;;;;8.00;4.97;;;3.40;99.90;;;;;;10081851;28;20344;-71
2023/12/18 02:02:09;;;;;;;8.77;4.93;;;3.40;99.90;;;;;;10080886;28;20043;-71
2023/12/18 02:07:02;;;;;;;7.05;4.60;;;3.40;99.90;;;;;;10080429;28;20550;-70
2023/12/18 02:11:53;;;;;;;10.48;5.22;;;3.30;99.90;;;;;;10064026;28;20028;-71
2023/12/18 02:16:44;;;;;;;9.75;5.22;;;3.30;99.90;;;;;;10080083;28;20029;-70
2023/12/18 02:21:34;;;;;;;8.93;5.35;;;3.30;99.90;;;;;;10075237;28;20032;-70
2023/12/18 02:26:25;;;;;;;11.13;5.53;;;3.30;99.90;;;;;;10077533;28;20045;-71
2023/12/18 02:31:18;;;;;;;8.27;5.57;;;3.30;99.90;;;;;;10062241;28;20025;-71
2023/12/18 02:36:08;;;;;;;8.43;5.28;;;3.30;99.90;;;;;;10081348;28;20028;-70
2023/12/18 02:40:59;;;;;;;10.55;5.25;;;3.40;99.90;;;;;;10073912;28;20029;-71
2023/12/18 02:45:50;;;;;;;8.05;4.85;;;3.40;99.90;;;;;;10079061;28;20083;-71
2023/12/18 02:50:41;;;;;;;8.25;4.40;;;3.40;99.90;;;;;;10081748;28;20029;-70
2023/12/18 02:55:31;;;;;;;7.57;4.93;;;3.40;99.90;;;;;;10083223;28;20035;-71
2023/12/18 03:00:22;;;;;;;8.15;3.65;;;3.30;99.90;;;;;;10077980;28;20033;-70
2023/12/18 03:05:14;;;;;;;10.15;5.50;;;3.30;99.90;;;;;;10077493;28;20086;-70
2023/12/18 03:10:05;;;;;;;8.80;4.45;;;3.30;99.90;;;;;;10077780;28;20018;-71
2023/12/18 03:14:56;;;;;;;8.82;5.32;;;3.30;99.90;;;;;;10074806;28;20052;-70
2023/12/18 03:19:46;;;;;;;9.70;5.65;;;3.30;99.90;;;;;;10081081;28;20078;-71
2023/12/18 03:24:39;;;;;;;9.68;5.78;;;3.30;99.90;;;;;;10079466;28;20394;-70
2023/12/18 03:29:30;;;;;;;7.82;4.55;;;3.30;99.90;;;;;;10074824;28;20411;-71
2023/12/18 03:34:22;;;;;;;9.82;4.47;;;3.20;99.90;;;;;;10074970;28;20044;-71
2023/12/18 03:39:12;;;;;;;11.30;5.45;;;3.30;99.90;;;;;;10068917;28;20109;-71
2023/12/18 03:44:03;;;;;;;7.30;4.65;;;3.30;99.90;;;;;;10076659;28;20051;-71
2023/12/18 03:48:54;;;;;;;8.45;5.13;;;3.30;99.90;;;;;;10077084;28;20029;-70
2023/12/18 03:53:44;;;;;;;9.68;5.28;;;3.20;99.90;;;;;;10075742;28;20120;-70
2023/12/18 03:58:36;;;;;;;8.38;4.80;;;3.30;99.90;;;;;;10079897;28;20029;-70
2023/12/18 04:03:27;;;;;;;11.60;5.97;;;3.30;99.90;;;;;;10058672;28;20059;-70
2023/12/18 04:08:17;;;;;;;9.65;4.65;;;3.30;99.90;;;;;;10077749;28;20459;-70
2023/12/18 04:13:08;;;;;;;9.98;4.47;;;3.40;99.90;;;;;;10058809;28;20029;-70
2023/12/18 04:17:59;;;;;;;9.52;4.82;;;3.30;99.90;;;;;;10076074;28;20081;-70
2023/12/18 04:22:50;;;;;;;12.13;5.18;;;3.40;99.90;;;;;;10076281;28;20036;-70
2023/12/18 04:27:41;;;;;;;9.07;5.55;;;3.40;99.90;;;;;;10073032;28;20045;-70
2023/12/18 04:32:32;;;;;;;8.30;5.35;;;3.40;99.90;;;;;;10075472;28;20139;-70
2023/12/18 04:37:22;;;;;;;7.35;5.78;;;3.40;99.90;;;;;;10079659;28;20219;-70
2023/12/18 04:42:13;;;;;;;8.82;4.93;;;3.30;99.90;;;;;;10071632;28;20517;-70
2023/12/18 04:47:04;;;;;;;7.97;4.65;;;3.40;99.90;;;;;;10074877;28;20037;-71
2023/12/18 04:51:54;;;;;;;8.23;5.20;;;3.30;99.90;;;;;;10077762;28;20108;-70
2023/12/18 04:56:45;;;;;;;8.57;4.82;;;3.30;99.90;;;;;;10078391;28;20036;-71
2023/12/18 05:01:36;;;;;;;6.78;4.57;;;3.20;99.90;;;;;;10072890;28;20087;-71
2023/12/18 05:06:28;;;;;;;9.02;5.03;;;3.30;99.90;;;;;;10054375;28;20033;-71
2023/12/18 05:11:20;;;;;;;8.95;4.45;;;3.30;99.90;;;;;;10079129;28;20020;-71
2023/12/18 05:16:13;;;;;;;10.13;4.55;;;3.30;99.90;;;;;;10069714;28;20103;-71
2023/12/18 05:21:04;;;;;;;8.48;4.85;;;3.30;99.90;;;;;;10078798;28;20013;-71
2023/12/18 05:25:55;;;;;;;11.20;6.03;;;3.20;99.90;;;;;;10079387;28;20060;-70
2023/12/18 05:30:45;;;;;;;11.13;4.88;;;3.30;99.90;;;;;;10083994;28;20426;-71
2023/12/18 05:35:36;;;;;;;8.60;4.40;;;3.30;99.90;;;;;;10081186;28;20034;-71
2023/12/18 05:40:27;;;;;;;9.90;4.85;;;3.30;99.90;;;;;;10065191;28;20107;-71
2023/12/18 05:45:17;;;;;;;11.85;5.80;;;3.30;99.90;;;;;;10090656;28;20184;-71
2023/12/18 05:50:08;;;;;;;11.68;6.50;;;3.30;99.90;;;;;;10072474;28;20038;-70
2023/12/18 05:54:59;;;;;;;11.15;4.95;;;3.20;99.90;;;;;;10085841;28;20330;-70
2023/12/18 05:59:49;;;;;;;9.80;5.18;;;3.20;99.90;;;;;;10077948;28;20281;-71
2023/12/18 06:04:43;;;;;;;8.82;5.53;;;3.20;99.90;;;;;;10072857;28;20403;-70
2023/12/18 06:09:33;;;;;;;12.55;5.03;;;3.10;99.90;;;;;;10067753;28;20070;-70
2023/12/18 06:14:24;;;;;;;10.57;5.63;;;3.10;99.90;;;;;;10065550;28;20059;-71
2023/12/18 06:19:15;;;;;;;12.07;5.30;;;3.10;99.90;;;;;;10087431;28;20518;-70
2023/12/18 06:24:05;;;;;;;8.57;5.53;;;3.10;99.90;;;;;;10067955;28;20045;-69
2023/12/18 06:28:56;;;;;;;8.70;5.85;;;3.00;99.90;;;;;;10074312;28;20117;-70
2023/12/18 06:33:47;;;;;;;8.82;5.10;;;3.00;99.90;;;;;;10059521;28;20061;-69
2023/12/18 06:38:37;;;;;;;10.70;5.30;;;3.00;99.90;;;;;;10053693;28;20398;-70
2023/12/18 06:43:28;;;;;;;11.68;5.63;;;3.10;99.90;;;;;;10071763;28;20085;-70
2023/12/18 06:48:19;;;;;;;14.50;5.15;;;3.00;99.90;;;;;;10072657;28;20499;-69
2023/12/18 06:53:10;;;;;;;10.75;4.78;;;3.00;99.90;;;;;;10084749;28;20030;-71
2023/12/18 06:58:01;;;;;;;12.45;6.65;;;3.10;99.90;;;;;;10078500;28;20064;-71
2023/12/18 07:02:51;;;;;;;8.48;5.10;;;3.20;99.90;;;;;;10071312;28;20483;-70
2023/12/18 07:07:42;;;;;;;9.50;5.95;;;3.00;99.90;;;;;;10066249;28;20369;-70
2023/12/18 07:12:33;;;;;;;12.32;6.80;;;3.00;99.90;;;;;;10060283;28;20392;-70
2023/12/18 07:17:23;;;;;;;10.95;5.53;;;3.00;99.90;;;;;;10082003;28;20029;-71
2023/12/18 07:22:14;;;;;;;10.55;5.72;;;3.00;99.90;;;;;;10069695;28;20029;-70
2023/12/18 07:27:05;;;;;;;10.68;5.47;;;2.90;99.90;;;;;;10070417;28;20044;-71
2023/12/18 07:31:56;;;;;;;9.25;5.70;;;3.00;99.90;;;;;;10064697;28;20318;-70
2023/12/18 07:36:47;;;;;;;12.43;6.15;;;3.00;99.90;;;;;;10044667;28;20207;-71
2023/12/18 07:41:37;;;;;;;10.60;6.30;;;3.20;99.90;;;;;;10061397;28;20274;-70
2023/12/18 07:46:28;;;;;;;8.77;5.35;;;3.20;99.90;;;;;;10077497;28;20037;-71
2023/12/18 07:51:19;;;;;;;14.43;6.25;;;3.20;99.90;;;;;;10082048;28;20044;-71
2023/12/18 07:56:19;;;;;;;12.07;5.97;;;3.20;99.90;;;;;;10076872;28;20516;-71
2023/12/18 08:01:13;;;;;;;9.65;5.03;;;3.20;99.90;;;;;;10053991;28;20021;-71
2023/12/18 08:06:04;;;;;;;12.65;5.90;;;3.10;99.90;;;;;;10064484;28;20041;-70
2023/12/18 08:10:55;;;;;;;12.63;5.07;;;3.10;99.90;;;;;;10060244;28;20020;-70
2023/12/18 08:15:46;;;;;;;13.60;6.30;;;3.10;99.90;;;;;;10041214;28;20045;-70
2023/12/18 08:20:37;;;;;;;11.02;6.30;;;3.20;99.90;;;;;;10059034;28;20410;-70
2023/12/18 08:25:27;;;;;;;11.10;6.45;;;3.20;99.90;;;;;;10067495;28;20135;-70
2023/12/18 08:30:18;;;;;;;13.25;7.15;;;3.20;99.90;;;;;;10060556;28;20045;-70
2023/12/18 08:35:09;;;;;;;14.70;7.15;;;3.10;99.90;;;;;;10058907;28;20029;-70
2023/12/18 08:39:59;;;;;;;13.82;6.00;;;3.10;99.90;;;;;;10059874;28;20432;-69
2023/12/18 08:44:50;;;;;;;14.48;7.00;;;3.10;99.90;;;;;;10066810;28;20036;-70
2023/12/18 08:49:41;;;;;;;13.88;7.05;;;2.90;99.90;;;;;;10083534;28;20025;-71
2023/12/18 08:54:31;;;;;;;14.02;6.45;;;2.70;99.90;;;;;;10077877;28;20139;-69
2023/12/18 08:59:22;;;;;;;15.77;7.13;;;2.60;99.90;;;;;;10074019;28;20025;-70
2023/12/18 09:04:13;;;;;;;15.48;7.45;;;2.60;99.90;;;;;;10071880;28;20095;-69
2023/12/18 09:09:03;;;;;;;15.85;7.85;;;2.70;99.90;;;;;;10055451;28;20552;-70
2023/12/18 09:13:54;;;;;;;16.48;7.22;;;2.90;99.90;;;;;;10056182;28;20022;-70
2023/12/18 09:18:45;;;;;;;16.88;8.55;;;2.90;99.90;;;;;;10074851;28;20033;-70
2023/12/18 09:23:36;;;;;;;17.95;8.85;;;3.00;99.90;;;;;;10066750;28;20037;-71
2023/12/18 09:28:26;;;;;;;20.77;10.20;;;3.00;99.90;;;;;;10074191;28;20053;-70
2023/12/18 09:33:17;;;;;;;17.67;8.60;;;3.00;99.90;;;;;;10067906;28;20029;-71
2023/12/18 09:38:08;;;;;;;18.45;7.78;;;3.10;99.90;;;;;;10047396;28;20068;-70
2023/12/18 09:43:00;;;;;;;21.13;9.60;;;3.10;99.90;;;;;;10063349;28;20049;-69
2023/12/18 09:47:53;;;;;;;15.98;8.82;;;3.20;99.90;;;;;;10091405;28;20069;-70
2023/12/18 09:53:07;;;;;;;14.38;7.20;;;3.20;99.90;;;;;;10086102;28;20029;-70
2023/12/18 09:58:00;;;;;;;12.35;6.50;;;3.30;99.90;;;;;;10079982;28;20044;-70
2023/12/18 10:02:51;;;;;;;12.68;7.28;;;3.40;99.90;;;;;;10068738;28;20110;-70
2023/12/18 10:07:41;;;;;;;14.77;6.65;;;3.40;99.90;;;;;;10069662;28;20045;-68
2023/12/18 10:12:32;;;;;;;16.98;7.90;;;3.50;99.90;;;;;;10064596;28;20095;-69
2023/12/18 10:17:23;;;;;;;13.18;6.90;;;3.50;99.90;;;;;;10072272;28;20526;-70
2023/12/18 10:22:16;;;;;;;12.63;7.40;;;3.50;99.90;;;;;;10075778;28;20584;-69
2023/12/18 10:27:07;;;;;;;13.35;6.97;;;3.60;99.90;;;;;;10073286;28;20518;-69
2023/12/18 10:31:58;;;;;;;16.15;7.47;;;3.60;99.90;;;;;;10068556;28;20033;-70
2023/12/18 10:36:51;;;;;;;12.98;7.05;;;3.70;99.90;;;;;;10062864;28;20064;-71
2023/12/18 10:41:57;;;;;;;12.52;6.30;;;3.70;99.90;;;;;;10061094;28;20017;-70
2023/12/18 10:46:49;;;;;;;14.98;6.88;;;3.80;99.90;;;;;;10063187;28;20046;-69
2023/12/18 10:51:41;;;;;;;15.80;6.53;;;3.90;99.90;;;;;;10086310;28;20395;-71
2023/12/18 10:56:33;;;;;;;13.23;6.30;;;3.90;99.90;;;;;;10063039;28;20384;-71
2023/12/18 11:01:24;;;;;;;16.90;8.30;;;3.90;99.90;;;;;;10074790;28;20022;-70
2023/12/18 11:06:17;;;;;;;13.15;8.35;;;3.90;99.90;;;;;;10068033;28;20041;-71
2023/12/18 11:11:09;;;;;;;18.90;7.28;;;4.00;99.90;;;;;;10062551;28;20044;-70
2023/12/18 11:16:12;;;;;;;14.20;6.65;;;4.00;99.90;;;;;;10063078;28;20175;-71
2023/12/18 11:21:03;;;;;;;14.35;7.53;;;4.10;99.90;;;;;;10064514;28;20478;-69
2023/12/18 11:25:53;;;;;;;11.48;6.68;;;4.10;99.90;;;;;;10064582;28;20128;-70
2023/12/18 11:30:44;;;;;;;13.10;7.30;;;4.20;99.90;;;;;;10068970;28;20043;-70
2023/12/18 11:35:37;;;;;;;10.75;7.15;;;4.20;99.90;;;;;;10064786;28;20160;-69
2023/12/18 11:40:31;;;;;;;15.23;7.70;;;4.20;99.90;;;;;;10059362;28;20028;-70
2023/12/18 11:45:24;;;;;;;14.00;7.30;;;4.20;99.90;;;;;;10079637;28;20033;-70
2023/12/18 11:50:15;;;;;;;16.67;8.18;;;4.20;99.90;;;;;;10085204;28;20030;-70
2023/12/18 11:55:14;;;;;;;17.05;8.32;;;4.30;99.90;;;;;;10080466;28;20108;-70
2023/12/18 12:00:06;;;;;;;12.32;7.85;;;4.30;99.90;;;;;;10058213;28;20033;-70
2023/12/18 12:05:02;;;;;;;12.45;6.57;;;4.40;99.90;;;;;;10070956;28;20083;-70
2023/12/18 12:09:59;;;;;;;16.13;7.97;;;4.40;99.90;;;;;;10046434;28;20055;-70
2023/12/18 12:14:50;;;;;;;18.67;7.78;;;4.40;99.90;;;;;;10060573;28;20398;-68
2023/12/18 12:19:43;;;;;;;11.50;6.57;;;4.40;99.90;;;;;;10074957;28;20025;-69
2023/12/18 12:24:39;;;;;;;16.33;8.23;;;4.40;99.90;;;;;;10070229;28;20037;-68
2023/12/18 12:29:30;;;;;;;;;;;4.50;99.90;;;;;;10067675;28;20467;-69
2023/12/18 12:34:20;;;;;;;10.25;5.78;;;4.60;99.90;;;;;;10068349;28;19905;-71
2023/12/18 12:39:11;;;;;;;13.98;6.38;;;4.60;99.90;;;;;;10068838;28;20025;-70
2023/12/18 12:44:02;;;;;;;13.23;7.25;;;4.60;99.90;;;;;;10071617;28;20060;-69
2023/12/18 12:48:53;;;;;;;11.38;7.47;;;4.60;99.90;;;;;;10090174;28;20094;-69
2023/12/18 12:53:44;;;;;;;9.95;6.18;;;4.60;99.90;;;;;;10089194;28;20036;-70
2023/12/18 12:58:36;;;;;;;14.55;6.43;;;4.70;99.90;;;;;;10080793;28;20028;-70
2023/12/18 13:03:26;;;;;;;15.50;6.38;;;4.80;99.90;;;;;;10076891;28;20021;-70
2023/12/18 13:08:18;;;;;;;10.80;6.47;;;4.80;99.90;;;;;;10057635;28;20041;-70
2023/12/18 13:13:15;;;;;;;10.80;5.70;;;4.90;99.90;;;;;;10062059;28;20025;-70
2023/12/18 13:18:06;;;;;;;12.02;6.28;;;4.90;99.90;;;;;;10076505;28;20056;-70
2023/12/18 13:22:57;;;;;;;12.07;6.57;;;4.90;99.90;;;;;;10072381;28;20069;-70
2023/12/18 13:27:47;;;;;;;8.55;5.57;;;4.90;99.90;;;;;;10078272;28;20077;-70
2023/12/18 13:32:39;;;;;;;10.65;5.95;;;5.00;99.90;;;;;;10072195;28;20034;-70
2023/12/18 13:37:30;;;;;;;14.38;5.70;;;5.00;99.90;;;;;;10047897;28;20463;-71
2023/12/18 13:42:21;;;;;;;10.23;5.55;;;5.10;99.90;;;;;;10052238;28;20029;-71
2023/12/18 13:47:14;;;;;;;11.02;5.97;;;5.10;99.90;;;;;;10086314;28;20033;-71
2023/12/18 13:52:10;;;;;;;11.05;5.50;;;5.10;99.90;;;;;;10070552;28;20498;-71
2023/12/18 13:57:01;;;;;;;8.98;5.00;;;5.20;99.90;;;;;;10075926;28;20024;-70
2023/12/18 14:01:52;;;;;;;10.45;5.80;;;5.10;99.90;;;;;;10078769;28;20036;-71
2023/12/18 14:06:43;;;;;;;8.85;4.65;;;5.10;99.90;;;;;;10051054;28;20041;-70
2023/12/18 14:11:34;;;;;;;9.43;5.63;;;5.10;99.90;;;;;;10065543;28;20021;-68
2023/12/18 14:16:24;;;;;;;8.70;4.55;;;5.20;99.90;;;;;;10064542;28;20443;-69
2023/12/18 14:21:16;;;;;;;12.32;6.15;;;5.20;99.90;;;;;;10081452;28;20028;-71
2023/12/18 14:26:07;;;;;;;13.90;6.82;;;5.20;99.90;;;;;;10055246;28;20407;-71
2023/12/18 14:30:58;;;;;;;8.30;5.10;;;5.20;99.90;;;;;;10071661;28;20450;-71
2023/12/18 14:35:49;;;;;;;10.18;6.57;;;5.30;99.90;;;;;;10065768;28;20026;-70
2023/12/18 14:40:39;;;;;;;8.80;5.90;;;5.20;99.90;;;;;;10060213;28;20033;-71
2023/12/18 14:45:30;;;;;;;11.00;5.78;;;5.20;99.90;;;;;;10068493;28;20494;-71
2023/12/18 14:50:21;;;;;;;13.52;6.40;;;5.10;99.90;;;;;;10087380;28;20262;-70
2023/12/18 14:55:12;;;;;;;9.60;5.90;;;5.20;99.90;;;;;;10078617;28;20029;-70
2023/12/18 15:00:05;;;;;;;11.65;6.07;;;5.10;99.90;;;;;;10076384;28;20210;-70
2023/12/18 15:04:56;;;;;;;14.82;8.30;;;5.20;99.90;;;;;;10069895;28;20567;-70
2023/12/18 15:09:46;;;;;;;10.63;6.53;;;5.20;99.90;;;;;;10046224;28;20116;-71
2023/12/18 15:14:37;;;;;;;15.10;7.28;;;5.20;99.90;;;;;;10060917;28;20026;-70
2023/12/18 15:19:27;;;;;;;13.13;6.97;;;5.30;99.90;;;;;;10077182;28;20026;-70
2023/12/18 15:24:18;;;;;;;14.90;7.20;;;5.20;99.90;;;;;;10072302;28;20022;-71
2023/12/18 15:29:09;;;;;;;10.77;6.45;;;5.20;99.90;;;;;;10068966;28;20059;-69
2023/12/18 15:33:59;;;;;;;13.45;7.18;;;5.20;99.90;;;;;;10063923;28;20044;-71
2023/12/18 15:38:50;;;;;;;12.52;7.40;;;5.20;99.90;;;;;;10058971;28;20021;-70
2023/12/18 15:43:41;;;;;;;11.48;6.18;;;5.20;99.90;;;;;;10071891;28;20021;-71
2023/12/18 15:48:31;;;;;;;14.05;7.70;;;5.10;99.90;;;;;;10077345;28;20068;-70
2023/12/18 15:53:22;;;;;;;13.40;7.60;;;5.10;99.90;;;;;;10040237;28;20495;-71
2023/12/18 15:58:13;;;;;;;13.63;8.00;;;5.10;99.90;;;;;;10069388;28;20518;-70
2023/12/18 16:03:07;;;;;;;11.88;7.40;;;5.10;99.90;;;;;;10066884;28;20034;-71
2023/12/18 16:07:57;;;;;;;14.02;7.28;;;5.10;99.90;;;;;;10048448;28;20041;-70
2023/12/18 16:12:48;;;;;;;14.27;7.78;;;5.10;99.90;;;;;;10059651;28;20055;-71
2023/12/18 16:17:39;;;;;;;12.63;7.50;;;5.10;99.90;;;;;;10065774;28;20116;-70
2023/12/18 16:22:30;;;;;;;13.02;6.50;;;5.10;99.90;;;;;;10055470;28;20029;-68
2023/12/18 16:27:21;;;;;;;11.88;6.70;;;5.10;99.90;;;;;;10072024;28;20075;-70
2023/12/18 16:32:13;;;;;;;12.90;7.53;;;5.10;99.90;;;;;;10066760;28;20386;-71
2023/12/18 16:37:08;;;;;;;10.27;6.65;;;5.10;99.90;;;;;;10061729;28;20022;-70
2023/12/18 16:41:58;;;;;;;12.40;6.70;;;5.10;99.90;;;;;;10059043;28;20029;-71
2023/12/18 16:46:49;;;;;;;11.55;7.43;;;5.10;99.90;;;;;;10083178;28;20052;-71
2023/12/18 16:51:40;;;;;;;9.77;6.40;;;5.10;99.90;;;;;;10075979;28;20032;-70
2023/12/18 16:56:30;;;;;;;12.93;6.72;;;5.00;99.90;;;;;;10078255;28;20390;-72
2023/12/18 17:01:21;;;;;;;10.20;6.35;;;5.10;99.90;;;;;;10075373;28;20037;-71
2023/12/18 17:06:12;;;;;;;10.80;7.00;;;5.00;99.90;;;;;;10068625;28;20382;-69
2023/12/18 17:11:04;;;;;;;12.82;7.22;;;5.00;99.90;;;;;;10061603;28;20028;-71
2023/12/18 17:15:55;;;;;;;13.57;7.68;;;5.00;99.90;;;;;;10057208;28;20048;-71
2023/12/18 17:20:45;;;;;;;13.00;6.93;;;5.00;99.90;;;;;;10082134;28;20032;-71
2023/12/18 17:25:36;;;;;;;12.77;6.32;;;5.10;99.90;;;;;;10076197;28;20041;-71
2023/12/18 17:30:27;;;;;;;13.35;8.20;;;5.00;99.90;;;;;;10034215;28;20057;-69
2023/12/18 17:35:29;;;;;;;11.43;6.70;;;5.00;99.90;;;;;;10030635;28;20565;-69
2023/12/18 17:40:23;;;;;;;13.60;7.80;;;5.00;99.90;;;;;;9996467;28;20052;-70
2023/12/18 17:45:15;;;;;;;13.38;7.30;;;5.00;99.90;;;;;;10018029;28;20041;-71
2023/12/18 17:50:06;;;;;;;12.57;7.32;;;5.10;99.90;;;;;;10046176;28;20030;-70
2023/12/18 17:54:57;;;;;;;12.63;7.18;;;5.10;99.90;;;;;;10022019;28;20052;-71
2023/12/18 17:59:49;;;;;;;15.98;7.80;;;5.10;99.90;;;;;;10023664;28;20030;-70
2023/12/18 18:04:40;;;;;;;19.52;8.50;;;5.00;99.90;;;;;;10034976;28;20057;-70
2023/12/18 18:09:31;;;;;;;19.67;9.57;;;5.10;99.90;;;;;;10030337;28;20591;-71
2023/12/18 18:14:22;;;;;;;19.45;10.68;;;5.00;99.90;;;;;;10024409;28;20022;-70
2023/12/18 18:19:17;;;;;;;15.55;8.63;;;5.00;99.90;;;;;;10039103;28;20021;-71
2023/12/18 18:24:08;;;;;;;17.02;9.48;;;5.00;99.90;;;;;;10019419;28;20104;-71
2023/12/18 18:28:58;;;;;;;19.15;9.95;;;5.00;99.90;;;;;;10034934;28;20081;-70
2023/12/18 18:33:49;;;;;;;17.50;9.32;;;5.00;99.90;;;;;;10027192;28;20496;-70
2023/12/18 18:38:43;;;;;;;19.30;10.57;;;5.00;99.90;;;;;;10019963;28;20144;-71
2023/12/18 18:43:34;;;;;;;18.48;9.77;;;5.00;99.90;;;;;;10044622;28;20025;-70
2023/12/18 18:48:25;;;;;;;21.85;10.20;;;5.00;99.90;;;;;;10021443;28;20128;-70
2023/12/18 18:53:16;;;;;;;13.38;8.65;;;5.00;99.90;;;;;;10037807;28;20035;-71
2023/12/18 18:58:06;;;;;;;18.70;9.02;;;5.00;99.90;;;;;;10041686;28;20041;-71
2023/12/18 19:03:00;;;;;;;22.45;9.63;;;5.00;99.90;;;;;;10035002;28;20025;-71
2023/12/18 19:07:50;;;;;;;18.25;9.88;;;5.00;99.90;;;;;;10030336;28;20116;-71
2023/12/18 19:12:43;;;;;;;17.20;11.05;;;5.00;99.90;;;;;;10005909;28;20109;-71
2023/12/18 19:17:33;;;;;;;21.52;11.40;;;5.00;99.90;;;;;;10010824;28;20144;-71
2023/12/18 19:22:24;;;;;;;18.13;10.77;;;5.00;99.90;;;;;;10036477;28;20121;-70
2023/12/18 19:27:17;;;;;;;20.90;11.32;;;4.90;99.90;;;;;;10035534;28;20128;-70
2023/12/18 19:32:07;;;;;;;15.07;9.73;;;5.00;99.90;;;;;;10021009;28;20120;-70
2023/12/18 19:36:58;;;;;;;21.02;11.73;;;4.80;99.90;;;;;;10023504;28;20543;-69
2023/12/18 19:41:49;;;;;;;18.30;10.55;;;4.80;99.90;;;;;;10018782;28;20036;-70
2023/12/18 19:46:39;;;;;;;18.73;9.20;;;4.80;99.90;;;;;;10041029;28;20048;-70
2023/12/18 19:51:30;;;;;;;19.48;9.77;;;4.80;99.90;;;;;;10023659;28;20035;-71
2023/12/18 19:56:21;;;;;;;18.60;10.60;;;4.80;99.90;;;;;;10024513;28;20112;-71
2023/12/18 20:01:18;;;;;;;21.67;10.55;;;4.80;99.90;;;;;;10021715;28;20029;-70
2023/12/18 20:06:12;;;;;;;16.52;9.43;;;4.70;99.90;;;;;;10009173;28;20486;-70
2023/12/18 20:11:03;;;;;;;18.73;8.82;;;4.80;99.90;;;;;;10021194;28;20084;-71
2023/12/18 20:15:54;;;;;;;17.98;9.35;;;4.70;99.90;;;;;;9999837;28;20607;-71
2023/12/18 20:20:44;;;;;;;17.48;9.85;;;4.70;99.90;;;;;;10043092;28;20335;-71
2023/12/18 20:25:35;;;;;;;14.95;9.65;;;4.80;99.90;;;;;;10031135;28;20057;-72
2023/12/18 20:30:26;;;;;;;17.02;10.60;;;4.80;99.90;;;;;;10014389;28;20510;-70
2023/12/18 20:35:16;;;;;;;14.95;9.38;;;4.80;99.90;;;;;;10026232;28;20610;-71
2023/12/18 20:40:09;;;;;;;15.07;8.93;;;4.80;99.90;;;;;;10020652;28;20478;-70
2023/12/18 20:45:00;;;;;;;19.00;9.45;;;4.80;99.90;;;;;;10042163;28;20034;-71
2023/12/18 20:49:50;;;;;;;17.40;9.82;;;4.80;99.90;;;;;;10050131;28;20034;-71
2023/12/18 20:54:41;;;;;;;16.05;9.57;;;4.70;99.90;;;;;;10029250;28;20018;-69
2023/12/18 20:59:31;;;;;;;18.30;10.55;;;4.80;99.90;;;;;;10046114;28;20040;-70
2023/12/18 21:04:22;;;;;;;16.83;11.07;;;4.70;99.90;;;;;;10021511;28;20080;-69
2023/12/18 21:09:14;;;;;;;17.65;10.07;;;4.70;99.90;;;;;;10032736;28;20091;-70
2023/12/18 21:14:04;;;;;;;19.25;10.27;;;4.70;99.90;;;;;;10027714;28;20104;-68
2023/12/18 21:18:55;;;;;;;16.48;10.18;;;4.70;99.90;;;;;;10042106;28;20152;-69
2023/12/18 21:23:46;;;;;;;22.10;10.50;;;4.70;99.90;;;;;;10021227;28;20018;-69
2023/12/18 21:28:36;;;;;;;20.35;10.73;;;4.60;99.90;;;;;;10038540;28;20058;-69
2023/12/18 21:33:27;;;;;;;20.70;10.60;;;4.70;99.90;;;;;;10033454;28;20022;-68
2023/12/18 21:38:18;;;;;;;18.73;9.68;;;4.70;99.90;;;;;;10027043;28;20406;-70
2023/12/18 21:43:08;;;;;;;22.55;11.23;;;4.70;99.90;;;;;;10006309;28;20484;-69
2023/12/18 21:48:03;;;;;;;18.67;10.13;;;4.60;99.90;;;;;;10056492;28;20133;-70
2023/12/18 21:52:54;;;;;;;16.15;9.32;;;4.70;99.90;;;;;;10050442;28;20025;-71
2023/12/18 21:57:45;;;;;;;19.50;9.85;;;4.70;99.90;;;;;;10045953;28;20517;-70
2023/12/18 22:02:36;;;;;;;22.73;12.05;;;4.60;99.90;;;;;;10039225;28;20034;-70
2023/12/18 22:07:27;;;;;;;26.95;13.13;;;4.60;99.90;;;;;;10033872;28;20041;-70
2023/12/18 22:12:20;;;;;;;19.90;12.15;;;4.50;99.90;;;;;;10027345;28;20034;-69
2023/12/18 22:17:15;;;;;;;20.38;11.82;;;4.50;99.90;;;;;;10031452;28;20032;-72
2023/12/18 22:22:05;;;;;;;22.08;11.73;;;4.40;99.90;;;;;;10011678;28;20496;-72
2023/12/18 22:26:57;;;;;;;20.52;10.43;;;4.40;99.90;;;;;;10028899;28;20056;-70
2023/12/18 22:31:48;;;;;;;22.90;12.70;;;4.40;99.90;;;;;;10016598;28;20954;-71
2023/12/18 22:36:38;;;;;;;16.55;11.75;;;4.40;99.90;;;;;;10022265;28;20585;-70
2023/12/18 22:41:29;;;;;;;20.10;11.38;;;4.40;99.90;;;;;;10020213;28;20038;-67
2023/12/18 22:46:22;;;;;;;18.17;12.13;;;4.40;99.90;;;;;;10042426;28;20051;-70
2023/12/18 22:51:13;;;;;;;24.45;12.85;;;4.40;99.90;;;;;;10050861;28;20025;-70
2023/12/18 22:56:06;;;;;;;23.42;13.43;;;4.30;99.90;;;;;;10045781;28;20438;-71
2023/12/18 23:00:57;;;;;;;22.95;12.32;;;4.30;99.90;;;;;;10040722;28;20415;-72
2023/12/18 23:05:48;;;;;;;22.23;12.95;;;4.20;99.90;;;;;;10035126;28;20045;-70
2023/12/18 23:10:39;;;;;;;20.50;13.18;;;4.30;99.90;;;;;;10028563;28;20022;-72
2023/12/18 23:15:33;;;;;;;20.98;11.55;;;4.20;99.90;;;;;;10025361;28;20029;-71
2023/12/18 23:20:24;;;;;;;21.88;12.07;;;4.30;99.90;;;;;;10026743;28;20029;-70
2023/12/18 23:25:15;;;;;;;22.88;12.23;;;4.30;99.90;;;;;;10031524;28;20037;-70
2023/12/18 23:30:06;;;;;;;22.77;12.35;;;4.30;99.90;;;;;;9989724;28;20046;-70
2023/12/18 23:34:57;;;;;;;24.40;12.57;;;4.20;99.90;;;;;;9968526;28;20073;-70
2023/12/18 23:39:47;;;;;;;21.05;11.95;;;4.20;99.90;;;;;;9982036;28;20066;-71
2023/12/18 23:44:38;;;;;;;24.15;13.30;;;4.10;99.90;;;;;;9989528;28;20034;-70
2023/12/18 23:49:28;;;;;;;20.50;12.18;;;4.20;99.90;;;;;;10010565;28;20116;-69
2023/12/18 23:54:22;;;;;;;20.92;11.63;;;4.20;99.90;;;;;;10006268;28;20171;-70
2023/12/18 23:59:13;;;;;;;23.65;11.18;;;4.10;99.90;;;;;;9982091;28;20029;-71
